createdAt,value
2023-05-21T00:01:01.341Z,15.40
2023-05-21T00:04:15.813Z,13.40
2023-05-21T00:07:21.210Z,14.90
2023-05-21T00:10:24.159Z,17.10
2023-05-21T00:13:27.156Z,15.20
2023-05-21T00:16:30.103Z,15.60
2023-05-21T00:19:36.183Z,15.90
2023-05-21T00:22:40.417Z,17.50
2023-05-21T00:25:43.274Z,17.00
2023-05-21T00:28:46.108Z,17.40
2023-05-21T00:31:50.524Z,17.60
2023-05-21T00:34:53.546Z,15.10
2023-05-21T00:37:57.415Z,17.10
2023-05-21T00:41:02.962Z,17.60
2023-05-21T00:44:07.354Z,15.50
2023-05-21T00:47:10.361Z,16.70
2023-05-21T00:50:15.258Z,16.80
2023-05-21T00:53:19.576Z,16.80
2023-05-21T00:56:24.169Z,15.00
2023-05-21T00:59:36.062Z,17.70
2023-05-21T01:02:39.261Z,16.50
2023-05-21T01:05:45.265Z,14.50
2023-05-21T01:11:53.247Z,11.70
2023-05-21T01:14:57.767Z,13.40
2023-05-21T01:18:00.886Z,11.60
2023-05-21T01:21:05.224Z,13.50
2023-05-21T01:24:08.222Z,14.60
2023-05-21T01:27:11.093Z,14.30
2023-05-21T01:30:15.373Z,14.10
2023-05-21T01:33:38.238Z,14.40
2023-05-21T01:36:46.644Z,14.40
2023-05-21T01:40:00.265Z,14.90
2023-05-21T01:43:05.859Z,14.70
2023-05-21T01:46:13.143Z,14.70
2023-05-21T01:49:17.893Z,16.70
2023-05-21T01:52:20.798Z,15.80
2023-05-21T01:55:24.915Z,14.70
2023-05-21T01:58:27.982Z,14.70
2023-05-21T02:01:31.277Z,13.40
2023-05-21T02:04:34.267Z,13.40
2023-05-21T02:07:37.637Z,14.90
2023-05-21T02:10:40.795Z,11.80
2023-05-21T02:13:46.195Z,13.60
2023-05-21T02:16:49.253Z,15.10
2023-05-21T02:19:52.548Z,11.70
2023-05-21T02:22:55.793Z,13.80
2023-05-21T02:25:58.991Z,15.00
2023-05-21T02:29:02.738Z,15.80
2023-05-21T02:32:06.114Z,15.90
2023-05-21T02:35:10.823Z,15.50
2023-05-21T02:38:14.117Z,17.40
2023-05-21T02:41:16.946Z,14.70
2023-05-21T02:44:21.001Z,14.30
2023-05-21T02:47:24.367Z,13.90
2023-05-21T02:50:27.331Z,15.70
2023-05-21T02:53:30.264Z,17.10
2023-05-21T02:56:33.202Z,16.20
2023-05-21T02:59:36.052Z,19.50
2023-05-21T03:02:38.979Z,18.40
2023-05-21T03:05:42.026Z,15.10
2023-05-21T03:08:44.877Z,13.10
2023-05-21T03:11:48.451Z,16.50
2023-05-21T03:14:51.549Z,17.90
2023-05-21T03:17:55.740Z,17.30
2023-05-21T03:20:59.165Z,16.40
2023-05-21T03:24:02.978Z,18.30
2023-05-21T03:27:09.293Z,17.80
2023-05-21T03:30:12.713Z,15.50
2023-05-21T03:33:16.512Z,16.60
2023-05-21T03:36:20.219Z,15.00
2023-05-21T03:39:23.129Z,14.60
2023-05-21T03:42:26.281Z,15.30
2023-05-21T03:45:29.133Z,13.80
2023-05-21T03:48:32.023Z,13.50
2023-05-21T03:51:34.829Z,13.70
2023-05-21T03:54:37.796Z,14.50
2023-05-21T03:57:41.431Z,14.60
2023-05-21T04:00:45.611Z,14.50
2023-05-21T04:03:48.702Z,12.90
2023-05-21T04:06:51.876Z,13.90
2023-05-21T04:09:54.712Z,13.40
2023-05-21T04:12:57.558Z,12.20
2023-05-21T04:16:00.752Z,11.10
2023-05-21T04:19:03.927Z,12.40
2023-05-21T04:22:06.813Z,11.20
2023-05-21T04:25:10.120Z,10.90
2023-05-21T04:28:12.903Z,11.20
2023-05-21T04:31:15.854Z,11.00
2023-05-21T04:34:18.957Z,10.90
2023-05-21T04:37:24.733Z,11.40
2023-05-21T04:40:27.677Z,11.80
2023-05-21T04:43:32.197Z,11.90
2023-05-21T04:46:35.442Z,12.30
2023-05-21T04:49:38.422Z,10.90
2023-05-21T04:52:41.437Z,11.00
2023-05-21T04:55:44.307Z,10.60
2023-05-21T04:58:48.239Z,10.20
2023-05-21T05:01:51.090Z,11.70
2023-05-21T05:04:54.019Z,12.70
2023-05-21T05:07:58.334Z,12.50
2023-05-21T05:11:01.207Z,12.60
2023-05-21T05:14:04.070Z,12.50
2023-05-21T05:17:10.027Z,12.10
2023-05-21T05:20:13.070Z,11.90
2023-05-21T05:23:16.006Z,11.90
2023-05-21T05:26:18.946Z,11.30
2023-05-21T05:29:21.925Z,9.70
2023-05-21T05:32:24.878Z,9.00
2023-05-21T05:35:27.796Z,9.90
2023-05-21T05:38:31.386Z,8.90
2023-05-21T05:41:34.410Z,11.30
2023-05-21T05:44:37.279Z,11.50
2023-05-21T05:47:40.276Z,10.70
2023-05-21T05:50:43.378Z,11.50
2023-05-21T05:53:46.223Z,10.60
2023-05-21T05:56:49.050Z,11.40
2023-05-21T05:59:51.925Z,10.50
2023-05-21T06:02:54.867Z,12.30
2023-05-21T06:05:57.970Z,12.50
2023-05-21T06:09:01.135Z,11.90
2023-05-21T06:12:04.969Z,11.00
2023-05-21T06:15:08.561Z,11.00
2023-05-21T06:18:11.854Z,9.40
2023-05-21T06:21:15.015Z,11.50
2023-05-21T06:24:17.888Z,10.30
2023-05-21T06:27:21.025Z,11.40
2023-05-21T06:30:24.305Z,10.80
2023-05-21T06:33:30.198Z,9.40
2023-05-21T06:36:33.516Z,10.20
2023-05-21T06:39:36.492Z,10.20
2023-05-21T06:42:39.887Z,10.20
2023-05-21T06:45:42.868Z,10.20
2023-05-21T06:48:46.740Z,10.30
2023-05-21T06:51:49.755Z,10.00
2023-05-21T06:54:52.874Z,10.30
2023-05-21T06:57:57.908Z,9.80
2023-05-21T07:01:01.596Z,7.50
2023-05-21T07:04:04.821Z,9.50
2023-05-21T07:07:07.732Z,9.90
2023-05-21T07:10:11.139Z,9.90
2023-05-21T07:13:14.147Z,9.90
2023-05-21T07:16:18.119Z,10.60
2023-05-21T07:19:21.348Z,11.30
2023-05-21T07:22:25.955Z,11.20
2023-05-21T07:25:30.729Z,11.00
2023-05-21T07:28:33.685Z,12.20
2023-05-21T07:31:37.610Z,12.60
2023-05-21T07:34:40.599Z,13.30
2023-05-21T07:37:43.716Z,12.40
2023-05-21T07:40:46.602Z,13.30
2023-05-21T07:43:49.674Z,13.40
2023-05-21T07:46:52.537Z,14.10
2023-05-21T07:49:55.624Z,13.90
2023-05-21T07:52:58.886Z,13.40
2023-05-21T07:56:01.938Z,15.30
2023-05-21T07:59:05.058Z,13.60
2023-05-21T08:02:08.134Z,13.50
2023-05-21T08:05:11.159Z,13.60
2023-05-21T08:08:23.736Z,12.20
2023-05-21T08:11:27.094Z,13.60
2023-05-21T08:14:30.055Z,12.50
2023-05-21T08:17:33.016Z,12.60
2023-05-21T08:20:36.140Z,12.10
2023-05-21T08:23:39.066Z,12.40
2023-05-21T08:26:41.940Z,12.00
2023-05-21T08:29:45.336Z,12.80
2023-05-21T08:32:49.393Z,13.00
2023-05-21T08:35:52.355Z,13.10
2023-05-21T08:38:55.291Z,12.00
2023-05-21T08:42:12.155Z,11.50
2023-05-21T08:45:21.298Z,11.40
2023-05-21T08:48:24.671Z,11.30
2023-05-21T08:51:28.472Z,10.80
2023-05-21T08:54:31.541Z,11.30
2023-05-21T08:57:34.964Z,9.00
2023-05-21T09:00:37.884Z,10.70
2023-05-21T09:03:41.321Z,10.40
2023-05-21T09:06:45.079Z,10.90
2023-05-21T09:09:55.460Z,11.00
2023-05-21T09:12:59.526Z,11.20
2023-05-21T09:16:02.386Z,10.90
2023-05-21T09:19:05.494Z,10.20
2023-05-21T09:22:08.553Z,10.50
2023-05-21T09:25:13.410Z,10.30
2023-05-21T09:28:19.295Z,11.60
2023-05-21T09:31:24.213Z,11.40
2023-05-21T09:34:28.189Z,8.20
2023-05-21T09:37:31.718Z,10.80
2023-05-21T09:40:35.617Z,11.10
2023-05-21T09:43:38.945Z,9.40
2023-05-21T09:46:42.957Z,10.80
2023-05-21T09:49:45.922Z,9.10
2023-05-21T09:52:55.661Z,9.20
2023-05-21T09:55:59.926Z,9.10
2023-05-21T09:59:06.927Z,9.60
2023-05-21T10:02:23.475Z,9.60
2023-05-21T10:05:30.163Z,8.60
2023-05-21T10:08:36.949Z,9.30
2023-05-21T10:11:41.098Z,8.60
2023-05-21T10:14:51.180Z,8.60
2023-05-21T10:17:56.507Z,8.80
2023-05-21T10:21:01.161Z,8.30
2023-05-21T10:24:05.160Z,7.70
2023-05-21T10:27:08.177Z,7.30
2023-05-21T10:30:11.863Z,7.30
2023-05-21T10:33:17.183Z,7.40
2023-05-21T10:36:20.809Z,7.50
2023-05-21T10:39:25.657Z,7.00
2023-05-21T10:42:31.319Z,7.50
2023-05-21T10:45:51.342Z,6.80
2023-05-21T10:49:19.299Z,6.80
2023-05-21T10:52:32.206Z,6.90
2023-05-21T10:55:45.733Z,6.90
2023-05-21T10:58:57.818Z,6.40
2023-05-21T11:02:01.918Z,7.10
2023-05-21T11:05:05.398Z,6.60
2023-05-21T11:08:37.129Z,6.50
2023-05-21T11:11:50.964Z,6.60
2023-05-21T11:14:58.287Z,5.90
2023-05-21T11:18:01.404Z,6.70
2023-05-21T11:21:10.394Z,5.80
2023-05-21T11:24:19.435Z,5.10
2023-05-21T11:27:42.074Z,5.30
2023-05-21T11:31:27.014Z,4.60
2023-05-21T11:34:46.041Z,5.10
2023-05-21T11:37:54.031Z,5.10
2023-05-21T11:41:03.234Z,6.40
2023-05-21T11:44:09.109Z,4.90
2023-05-21T11:47:15.177Z,5.70
2023-05-21T11:50:18.900Z,7.80
2023-05-21T11:53:22.224Z,4.90
2023-05-21T11:56:25.950Z,4.80
2023-05-21T11:59:29.001Z,4.20
2023-05-21T12:02:33.081Z,4.30
2023-05-21T12:05:48.847Z,4.10
2023-05-21T12:08:52.797Z,4.00
2023-05-21T12:11:55.825Z,4.20
2023-05-21T12:14:59.391Z,4.30
2023-05-21T12:18:03.118Z,3.90
2023-05-21T12:21:07.059Z,3.10
2023-05-21T12:24:09.971Z,3.90
2023-05-21T12:27:13.925Z,4.30
2023-05-21T12:30:17.035Z,3.50
2023-05-21T12:33:20.125Z,3.70
2023-05-21T12:36:27.136Z,3.80
2023-05-21T12:39:31.520Z,3.70
2023-05-21T12:42:37.543Z,3.40
2023-05-21T12:45:40.966Z,3.90
2023-05-21T12:48:51.647Z,3.60
2023-05-21T12:51:57.140Z,3.40
2023-05-21T12:55:00.259Z,3.10
2023-05-21T12:58:08.790Z,3.40
2023-05-21T13:01:12.580Z,3.20
2023-05-21T13:04:15.644Z,3.60
2023-05-21T13:07:18.777Z,3.50
2023-05-21T13:10:21.846Z,3.30
2023-05-21T13:13:24.754Z,3.20
2023-05-21T13:16:27.758Z,3.30
2023-05-21T13:19:30.912Z,3.20
2023-05-21T13:22:34.300Z,3.50
2023-05-21T13:25:37.293Z,3.40
2023-05-21T13:28:42.399Z,2.60
2023-05-21T13:31:45.891Z,3.00
2023-05-21T13:34:48.820Z,3.90
2023-05-21T13:37:51.771Z,3.50
2023-05-21T13:40:54.757Z,3.20
2023-05-21T13:43:58.133Z,3.70
2023-05-21T13:47:01.170Z,3.40
2023-05-21T13:50:04.499Z,3.50
2023-05-21T13:53:07.445Z,4.10
2023-05-21T13:56:10.525Z,3.20
2023-05-21T13:59:13.474Z,3.90
2023-05-21T14:02:16.658Z,3.30
2023-05-21T14:05:19.730Z,3.80
2023-05-21T14:08:23.830Z,4.00
2023-05-21T14:11:28.184Z,3.60
2023-05-21T14:14:31.599Z,3.70
2023-05-21T14:17:34.586Z,3.80
2023-05-21T14:20:39.955Z,3.50
2023-05-21T14:23:42.953Z,3.30
2023-05-21T14:26:46.270Z,3.10
2023-05-21T14:29:49.345Z,3.40
2023-05-21T14:32:52.302Z,4.00
2023-05-21T14:35:55.419Z,3.90
2023-05-21T14:38:58.381Z,3.40
2023-05-21T14:42:04.794Z,3.30
2023-05-21T14:45:20.471Z,2.50
2023-05-21T14:48:24.168Z,3.40
2023-05-21T14:51:27.448Z,3.40
2023-05-21T14:54:30.531Z,4.30
2023-05-21T14:57:33.488Z,3.60
2023-05-21T15:00:37.002Z,4.10
2023-05-21T15:03:40.130Z,3.70
2023-05-21T15:06:43.182Z,2.80
2023-05-21T15:09:47.546Z,3.40
2023-05-21T15:12:51.422Z,3.50
2023-05-21T15:15:54.520Z,3.30
2023-05-21T15:18:57.640Z,3.40
2023-05-21T15:22:00.649Z,3.60
2023-05-21T15:25:04.264Z,2.80
2023-05-21T15:28:07.253Z,3.30
2023-05-21T15:31:10.416Z,3.50
2023-05-21T15:34:13.854Z,3.00
2023-05-21T15:37:17.231Z,2.90
2023-05-21T15:40:20.303Z,3.20
2023-05-21T15:43:23.261Z,2.60
2023-05-21T15:46:28.575Z,2.90
2023-05-21T15:49:31.611Z,3.40
2023-05-21T15:52:34.653Z,2.50
2023-05-21T15:55:37.992Z,3.40
2023-05-21T15:58:41.167Z,2.90
2023-05-21T16:01:44.570Z,3.40
2023-05-21T16:04:51.510Z,3.20
2023-05-21T16:07:54.769Z,2.50
2023-05-21T16:10:57.762Z,2.30
2023-05-21T16:14:00.867Z,2.50
2023-05-21T16:17:03.987Z,2.80
2023-05-21T16:20:07.770Z,2.70
2023-05-21T16:23:14.314Z,2.80
2023-05-21T16:26:17.474Z,2.70
2023-05-21T16:29:22.159Z,2.70
2023-05-21T16:32:25.617Z,3.00
2023-05-21T16:35:28.938Z,2.40
2023-05-21T16:38:32.290Z,3.00
2023-05-21T16:41:39.508Z,2.80
2023-05-21T16:45:43.379Z,2.80
2023-05-21T16:49:46.789Z,2.70
2023-05-21T16:57:20.894Z,2.10
2023-05-21T17:00:29.613Z,3.30
2023-05-21T17:03:33.736Z,3.00
2023-05-21T17:06:42.544Z,3.20
2023-05-21T17:10:02.121Z,2.50
2023-05-21T17:13:21.325Z,2.70
2023-05-21T17:16:29.711Z,3.20
2023-05-21T17:19:35.677Z,2.80
2023-05-21T17:22:39.576Z,3.60
2023-05-21T17:26:04.643Z,6.70
2023-05-21T17:32:12.791Z,3.30
2023-05-21T17:35:19.366Z,3.10
2023-05-21T17:38:23.090Z,3.00
2023-05-21T17:41:28.538Z,2.30
2023-05-21T17:44:31.738Z,3.40
2023-05-21T17:47:35.605Z,2.80
2023-05-21T17:50:38.938Z,3.40
2023-05-21T17:53:41.978Z,2.90
2023-05-21T17:56:46.565Z,2.70
2023-05-21T17:59:50.124Z,3.60
2023-05-21T18:02:53.018Z,3.20
2023-05-21T18:05:56.801Z,3.30
2023-05-21T18:08:59.722Z,3.30
2023-05-21T18:12:04.500Z,3.10
2023-05-21T18:15:11.337Z,2.80
2023-05-21T18:18:19.755Z,3.00
2023-05-21T18:21:28.368Z,3.20
2023-05-21T18:24:31.408Z,3.00
2023-05-21T18:28:00.241Z,3.20
2023-05-21T18:31:27.198Z,3.00
2023-05-21T18:34:56.526Z,3.30
2023-05-21T18:38:00.159Z,3.80
2023-05-21T18:41:29.254Z,3.30
2023-05-21T18:44:41.388Z,3.80
2023-05-21T18:48:08.078Z,3.30
2023-05-21T18:51:36.674Z,3.60
2023-05-21T18:55:08.543Z,3.80
2023-05-21T18:58:23.963Z,3.50
2023-05-21T19:01:34.217Z,4.00
2023-05-21T19:04:52.847Z,3.80
2023-05-21T19:08:25.267Z,4.20
2023-05-21T19:11:45.239Z,4.40
2023-05-21T19:14:50.611Z,3.40
2023-05-21T19:18:15.219Z,4.80
2023-05-21T19:21:33.506Z,3.70
2023-05-21T19:25:01.006Z,3.80
2023-05-21T19:28:45.823Z,4.40
2023-05-21T19:32:04.116Z,4.20
2023-05-21T19:35:11.917Z,4.50
2023-05-21T19:38:50.095Z,4.90
2023-05-21T19:42:26.047Z,4.40
2023-05-21T19:45:34.103Z,5.10
2023-05-21T19:48:42.472Z,5.00
2023-05-21T19:52:10.666Z,5.40
2023-05-21T19:55:21.624Z,6.00
2023-05-21T19:58:30.497Z,5.20
2023-05-21T20:01:40.074Z,5.50
2023-05-21T20:04:43.999Z,4.80
2023-05-21T20:07:56.094Z,5.10
2023-05-21T20:11:10.360Z,4.70
2023-05-21T20:14:16.409Z,5.50
2023-05-21T20:17:42.217Z,4.80
2023-05-21T20:20:56.890Z,6.30
2023-05-21T20:24:22.674Z,5.60
2023-05-21T20:27:32.252Z,5.30
2023-05-21T20:31:13.279Z,5.00
2023-05-21T20:35:02.696Z,5.00
2023-05-21T20:38:47.381Z,5.90
2023-05-21T20:43:33.671Z,5.40
2023-05-21T20:47:23.599Z,5.70
2023-05-21T20:50:58.059Z,6.20
2023-05-21T20:54:23.332Z,6.10
2023-05-21T20:58:07.234Z,5.70
2023-05-21T21:01:18.769Z,6.90
2023-05-21T21:04:24.807Z,5.90
2023-05-21T21:08:15.324Z,5.80
2023-05-21T21:11:43.781Z,5.70
2023-05-21T21:15:28.759Z,5.70
2023-05-21T21:19:12.994Z,5.60
2023-05-21T21:22:49.614Z,5.30
2023-05-21T21:26:37.536Z,5.80
2023-05-21T21:30:09.283Z,5.10
2023-05-21T21:33:29.217Z,6.00
2023-05-21T21:36:54.204Z,5.90
2023-05-21T21:40:14.760Z,6.10
2023-05-21T21:43:40.250Z,5.90
2023-05-21T21:47:54.536Z,6.30
2023-05-21T21:51:16.937Z,5.80
2023-05-21T21:54:43.036Z,7.20
2023-05-21T21:58:02.132Z,6.00
2023-05-21T22:01:27.801Z,5.40
2023-05-21T22:05:09.410Z,5.40
2023-05-21T22:08:38.245Z,6.70
2023-05-21T22:12:39.158Z,6.50
2023-05-21T22:15:42.130Z,6.00
2023-05-21T22:19:13.556Z,6.40
2023-05-21T22:22:39.458Z,6.20
2023-05-21T22:25:59.423Z,5.80
2023-05-21T22:29:20.399Z,6.00
2023-05-21T22:32:46.935Z,5.30
2023-05-21T22:35:58.616Z,5.60
2023-05-21T22:39:19.840Z,5.10
2023-05-21T22:42:45.069Z,5.60
2023-05-21T22:46:22.460Z,6.00
2023-05-21T22:50:08.148Z,5.30
2023-05-21T22:53:49.632Z,6.30
2023-05-21T22:57:05.221Z,6.00
2023-05-21T23:00:31.927Z,5.40
2023-05-21T23:03:52.593Z,6.70
2023-05-21T23:07:27.157Z,5.80
2023-05-21T23:10:55.098Z,5.30
2023-05-21T23:14:16.753Z,5.80
2023-05-21T23:18:12.138Z,6.10
2023-05-21T23:21:47.390Z,5.00
2023-05-21T23:25:43.834Z,5.00
2023-05-21T23:28:58.762Z,5.00
2023-05-21T23:32:12.844Z,3.90
2023-05-21T23:35:59.419Z,3.80
2023-05-21T23:39:29.487Z,5.60
2023-05-21T23:42:59.067Z,4.60
2023-05-21T23:46:20.821Z,3.70
2023-05-21T23:50:24.343Z,5.50
2023-05-21T23:54:31.905Z,5.10
2023-05-21T23:57:51.655Z,4.60
